Chandler, AZ

12:05 AM MST on August 30, 2014 (GMT -0700)
Pecos/Cooper | Change Station
CLOSE
Current Station
Personal Weather Station
Location: Chandler, AZ
Elevation: 1220 ft
Nearby Weather Stations

Elev 1220 ft 33.29 °N, 111.81 °W | Updated 2 seconds ago

Clear
Clear
84.0 °F
Feels Like 83 °F
N
0.0
Wind Variable Wind from North
Gusts 0.0 mph

Today
High -- | Low -- °F
--% Chance of Precip.
Yesterday
High -- | Low -- °F
Precip. -- in
6:00 AM 6:54 PM
Waxing Crescent, 19% visible
Pressure 29.80 in
Visibility 20.0 miles
Clouds Clear
Heat Index 83 °F
Dew Point 54 °F
Humidity 35%
Rainfall 0.00 in
Snow Depth Not available.
UV 0 out of 12
Pollen 5.60 out of 12
PM2.5 Good
Flu Activity Not available.
METAR KIWA 300647Z VRB05KT 20SM SKC 29/04 A2980

More Conditions Fewer Conditions

Pressure 29.80 in
Visibility 20.0 miles
Clouds Clear
Heat Index 83 °F
Dew Point 54 °F
Humidity 35%
Rainfall 0.00 in
Snow Depth Not available.
UV 0 out of 12
Pollen 5.60 out of 12
PM2.5 Good
Flu Activity Not available.
METAR KIWA 300647Z VRB05KT 20SM SKC 29/04 A2980

More Conditions Fewer Conditions

10-Day Weather Forecast

Almanac

Astronomy

Aug. 30, 2014 Rise Set
Actual Time 6:00 AM MST 6:54 PM MST
Civil Twilight 5:34 AM MST 7:20 PM MST
Nautical Twilight 5:04 AM MST 7:50 PM MST
Astronomical Twilight 4:33 AM MST 8:20 PM MST
Moon 10:35 AM MST 9:48 PM MST
Length of Visible Light 13h 45m
Length of Day
12h 54m
Tomorrow will be 1m 57s shorter.
Waxing Crescent, 19% of the Moon is Illuminated
Today
Waxing Crescent
Sep 2
First Quarter
Sep 8
Full
Sep 15
Last Quarter
Sep 24
New

Today's Extremes

State Highs State Lows

Community

WunderPhotos

Upload Photos

1,748,462 photos uploaded!

Nearby

Air Quality

  Air Quality AQ Index Pollutant
Yesterday Moderate
OZONE
Yesterday Good
PM10
Current Good
PM2.5
Friday Moderate
OZONE
Friday Good
PM10
Friday Good
CO
Saturday Moderate
OZONE
Saturday Good
PM10
Saturday Good
CO
Sunday Moderate
OZONE
Sunday Good
PM10
Sunday Good
CO

Snow Depth

Station Depth Elevation
Workman Creek 1 in 6900 ft
Promontory 0 in 7930 ft
Mormon Mountain 0 in 7500 ft
White Horse Lake 0 in 7180 ft
Wildcat 0 in 7850 ft

Earthquake Activity

City Distance Mag. Time & Date
No recent earthquake activity has been reported nearby.
Minimum magnitude displayed is 2.5.

Coastal Water Temperatures

Place Temperature
No Stations Reporting

Nearby Weather Stations